Time;durP1;ratioP1;P1;durP2;ratioP2;P2;SDS_P1;SDS_P2;PMS_P1;PMS_P2;Temp;Humidity;BMP_temperature;BMP_pressure;BME280_temperature;BME280_humidity;BME280_pressure;Samples;Min_cycle;Max_cycle;Signal;HPM_P1;HPM_P2
2023/10/08 00:02:25;;;;;;;1.83;1.10;;;13.70;79.20;;;;;;5101582;28;20066;-90
2023/10/08 00:05:00;;;;;;;2.17;0.85;;;13.70;78.90;;;;;;5151271;27;20122;-89
2023/10/08 00:07:31;;;;;;;1.52;1.17;;;13.60;78.60;;;;;;5097422;28;20047;-89
2023/10/08 00:09:59;;;;;;;1.20;0.98;;;13.60;77.90;;;;;;5101875;28;20051;-89
2023/10/08 00:12:30;;;;;;;1.67;1.20;;;13.60;78.40;;;;;;5153864;27;20043;-90
2023/10/08 00:15:14;;;;;;;1.45;1.35;;;13.70;78.40;;;;;;5102024;28;20101;-89
2023/10/08 00:17:41;;;;;;;1.65;1.10;;;13.60;77.90;;;;;;5085873;28;20040;-89
2023/10/08 00:20:10;;;;;;;1.95;1.20;;;13.60;78.20;;;;;;5100293;28;20089;-89
2023/10/08 00:22:36;;;;;;;1.73;1.60;;;13.70;78.00;;;;;;5101067;28;20688;-89
2023/10/08 00:25:16;;;;;;;2.28;1.50;;;12.60;77.70;;;;;;5102020;28;20047;-89
2023/10/08 00:27:42;;;;;;;3.20;1.60;;;12.70;78.50;;;;;;5103507;28;20039;-89
2023/10/08 00:30:17;;;;;;;2.08;1.70;;;13.60;80.00;;;;;;5101879;28;20059;-90
2023/10/08 00:32:45;;;;;;;2.05;1.20;;;13.50;80.30;;;;;;5100583;28;20047;-89
2023/10/08 00:35:15;;;;;;;1.90;1.58;;;13.50;79.70;;;;;;5098947;28;20096;-90
2023/10/08 00:37:41;;;;;;;2.20;1.77;;;13.50;79.40;;;;;;5149335;27;20579;-90
2023/10/08 00:40:22;;;;;;;;;;;;;;;;;;;;;
2023/10/08 00:42:56;;;;;;;2.35;2.08;;;13.80;77.80;;;;;;5117017;28;20047;-89
2023/10/08 00:45:30;;;;;;;3.33;2.30;;;13.50;78.10;;;;;;5099905;28;20070;-90
2023/10/08 00:48:00;;;;;;;2.90;2.30;;;13.40;78.40;;;;;;5084245;28;20126;-89
2023/10/08 00:50:42;;;;;;;3.00;2.45;;;13.40;78.70;;;;;;5151142;27;20047;-89
2023/10/08 00:53:20;;;;;;;2.70;2.25;;;12.50;77.80;;;;;;5097889;28;20108;-89
2023/10/08 00:56:06;;;;;;;5.13;2.35;;;13.40;77.70;;;;;;5098481;28;20051;-89
2023/10/08 00:58:43;;;;;;;3.10;2.13;;;13.40;77.80;;;;;;5098953;28;20385;-89
2023/10/08 01:01:12;;;;;;;;;;;13.40;77.10;;;;;;5153483;27;20126;-89
2023/10/08 01:03:54;;;;;;;;;;;;;;;;;;;;;
2023/10/08 01:06:27;;;;;;;2.60;1.48;;;13.30;78.50;;;;;;5116396;28;20044;-89
2023/10/08 01:08:57;;;;;;;3.25;1.98;;;13.30;78.40;;;;;;5096869;28;20481;-89
2023/10/08 01:14:25;;;;;;;1.75;1.60;;;13.30;79.40;;;;;;5099660;28;20062;-89
2023/10/08 01:16:53;;;;;;;2.33;1.65;;;13.30;80.50;;;;;;5098728;28;20097;-89
2023/10/08 01:19:20;;;;;;;4.07;1.97;;;13.30;81.50;;;;;;5148583;27;20035;-89
2023/10/08 01:21:46;;;;;;;;;;;13.30;80.50;;;;;;5098083;28;20289;-89
2023/10/08 01:24:16;;;;;;;2.42;1.40;;;13.30;80.20;;;;;;5099060;28;19923;-89
2023/10/08 01:26:45;;;;;;;1.70;1.40;;;13.20;81.20;;;;;;5098491;28;20092;-89
2023/10/08 01:29:19;;;;;;;2.17;1.48;;;13.30;81.30;;;;;;5080074;28;20040;-89
2023/10/08 01:31:48;;;;;;;1.60;1.30;;;13.30;80.70;;;;;;5098800;28;20386;-88
2023/10/08 01:34:16;;;;;;;1.48;1.13;;;13.30;81.00;;;;;;5150346;27;20054;-89
2023/10/08 01:36:44;;;;;;;1.73;1.20;;;13.30;81.20;;;;;;5079745;28;20055;-89
2023/10/08 01:39:28;;;;;;;1.05;0.98;;;13.30;81.00;;;;;;5114086;28;20048;-89
2023/10/08 01:41:54;;;;;;;1.30;1.20;;;13.30;81.30;;;;;;5099821;28;20043;-89
2023/10/08 01:44:24;;;;;;;3.40;1.70;;;13.30;81.40;;;;;;5081210;28;20035;-89
2023/10/08 01:46:50;;;;;;;1.80;1.00;;;13.30;79.90;;;;;;5081935;28;20055;-89
2023/10/08 01:49:16;;;;;;;2.05;1.00;;;13.30;79.60;;;;;;5099188;28;20058;-89
2023/10/08 01:51:50;;;;;;;2.72;1.15;;;13.30;80.50;;;;;;5147839;27;20055;-89
2023/10/08 01:54:17;;;;;;;1.05;0.93;;;13.20;81.50;;;;;;5097192;28;20051;-89
2023/10/08 01:56:48;;;;;;;1.85;0.98;;;13.20;81.10;;;;;;5096566;28;20140;-89
2023/10/08 01:59:19;;;;;;;1.20;0.93;;;13.30;81.70;;;;;;5097236;28;20156;-89
2023/10/08 02:01:47;;;;;;;1.88;0.98;;;13.20;81.60;;;;;;5098925;28;20559;-89
2023/10/08 02:04:16;;;;;;;1.58;1.15;;;14.10;82.10;;;;;;5081448;28;20050;-89
2023/10/08 02:06:50;;;;;;;1.55;1.02;;;13.20;81.50;;;;;;5098122;28;20079;-89
2023/10/08 02:09:25;;;;;;;1.63;0.98;;;13.20;81.00;;;;;;5114559;28;20047;-88
2023/10/08 02:11:53;;;;;;;1.00;0.98;;;13.30;82.30;;;;;;5097019;28;20223;-87
2023/10/08 02:14:22;;;;;;;2.63;1.50;;;13.20;82.70;;;;;;5095811;28;20134;-89
2023/10/08 02:16:56;;;;;;;2.63;1.58;;;13.20;82.50;;;;;;5147380;27;20047;-89
2023/10/08 02:19:26;;;;;;;2.17;1.33;;;13.20;82.70;;;;;;5148178;27;20047;-89
2023/10/08 02:21:57;;;;;;;3.25;1.73;;;13.20;83.00;;;;;;5147958;27;20047;-89
2023/10/08 02:24:30;;;;;;;2.38;1.77;;;12.70;81.90;;;;;;5097817;28;20430;-89
2023/10/08 02:26:57;;;;;;;1.90;1.58;;;13.20;80.70;;;;;;5147657;27;20048;-89
2023/10/08 02:29:41;;;;;;;4.90;1.77;;;13.20;80.30;;;;;;5096947;28;20127;-89
2023/10/08 02:32:08;;;;;;;2.97;1.80;;;13.20;81.00;;;;;;5099013;28;20552;-89
2023/10/08 02:34:35;;;;;;;2.00;1.70;;;13.30;79.70;;;;;;5098990;28;20047;-89
2023/10/08 02:37:03;;;;;;;1.90;1.70;;;13.30;79.40;;;;;;5097890;28;20548;-89
2023/10/08 02:39:32;;;;;;;3.25;1.80;;;13.30;79.30;;;;;;5095597;28;20055;-89
2023/10/08 02:42:08;;;;;;;1.88;1.77;;;13.30;78.90;;;;;;5096840;28;20105;-88
2023/10/08 02:44:42;;;;;;;3.67;2.40;;;13.30;78.30;;;;;;5113102;28;20056;-88
2023/10/08 02:47:12;;;;;;;2.63;2.05;;;13.30;78.50;;;;;;5096277;28;20109;-89
2023/10/08 02:49:54;;;;;;;2.47;1.95;;;13.30;78.30;;;;;;5096927;28;20401;-90
2023/10/08 02:52:23;;;;;;;2.55;2.15;;;13.30;79.40;;;;;;5083033;28;20058;-89
2023/10/08 02:54:52;;;;;;;3.92;2.22;;;13.30;80.60;;;;;;5149198;27;20043;-89
2023/10/08 02:57:24;;;;;;;3.88;2.08;;;13.40;81.00;;;;;;5098561;28;20051;-88
2023/10/08 02:59:49;;;;;;;3.00;1.80;;;13.30;81.20;;;;;;5149839;27;20040;-89
2023/10/08 03:02:21;;;;;;;2.13;1.75;;;13.40;81.20;;;;;;5150048;27;20040;-88
2023/10/08 03:04:58;;;;;;;;;;;;;;;;;;;;;
2023/10/08 03:07:37;;;;;;;2.35;2.00;;;13.40;81.00;;;;;;5147028;27;20108;-88
2023/10/08 03:10:06;;;;;;;3.42;1.77;;;13.30;81.20;;;;;;5096656;28;20048;-89
2023/10/08 03:12:42;;;;;;;4.70;1.90;;;13.30;80.30;;;;;;5095903;28;20127;-89
2023/10/08 03:15:28;;;;;;;3.67;1.60;;;13.60;80.20;;;;;;5083217;28;20055;-89
2023/10/08 03:17:57;;;;;;;3.60;1.88;;;13.30;80.40;;;;;;5095164;28;20044;-88
2023/10/08 03:20:37;;;;;;;2.20;1.83;;;13.30;80.60;;;;;;5095970;28;20063;-88
2023/10/08 03:23:11;;;;;;;2.03;1.52;;;13.30;80.00;;;;;;5097010;28;20043;-89
2023/10/08 03:25:42;;;;;;;2.13;1.92;;;13.20;80.90;;;;;;5099419;28;20138;-88
2023/10/08 03:28:14;;;;;;;2.05;1.88;;;13.30;80.70;;;;;;5112114;28;20043;-89
2023/10/08 03:31:44;;;;;;;3.28;2.20;;;13.40;81.30;;;;;;5146470;27;20055;-89
2023/10/08 03:33:38;;;;;;;1.98;1.55;;;13.30;80.70;;;;;;5087505;28;20531;-88
2023/10/08 03:36:19;;;;;;;;;;;;;;;;;;;;;
2023/10/08 03:38:49;;;;;;;3.05;1.35;;;12.50;76.80;;;;;;5112602;28;20052;-89
2023/10/08 03:41:32;;;;;;;2.78;1.85;;;13.10;76.70;;;;;;5098866;28;20079;-88
2023/10/08 03:46:37;;;;;;;3.88;1.35;;;13.20;77.30;;;;;;5118755;28;20043;-88
2023/10/08 03:52:05;;;;;;;1.73;1.17;;;13.20;78.00;;;;;;5103207;28;20047;-88
2023/10/08 03:54:43;;;;;;;2.85;1.90;;;13.20;77.60;;;;;;5101083;28;20046;-88
2023/10/08 03:57:25;;;;;;;2.92;1.38;;;13.20;77.50;;;;;;5101374;28;20048;-87
2023/10/08 03:59:55;;;;;;;3.40;1.55;;;13.20;77.30;;;;;;5102830;28;20040;-89
2023/10/08 04:02:32;;;;;;;3.05;1.60;;;13.20;78.50;;;;;;5150497;27;20130;-89
2023/10/08 04:05:17;;;;;;;3.22;1.58;;;13.30;79.50;;;;;;5101086;28;20086;-89
2023/10/08 04:08:42;;;;;;;2.17;1.63;;;13.10;79.80;;;;;;5153315;27;20051;-89
2023/10/08 04:13:09;;;;;;;2.97;2.08;;;13.20;79.40;;;;;;5101776;28;20048;-89
2023/10/08 04:15:43;;;;;;;3.33;1.90;;;13.20;80.20;;;;;;5151793;27;20044;-88
2023/10/08 04:18:13;;;;;;;2.15;1.92;;;13.20;81.30;;;;;;5098672;28;20135;-89
2023/10/08 04:20:59;;;;;;;4.78;1.63;;;13.20;82.70;;;;;;5101911;28;20047;-89
2023/10/08 04:23:25;;;;;;;2.03;1.70;;;13.20;82.60;;;;;;5101695;28;20400;-89
2023/10/08 04:25:54;;;;;;;2.90;2.00;;;13.20;83.40;;;;;;5115067;28;20035;-90
2023/10/08 04:28:28;;;;;;;5.22;2.30;;;13.20;84.80;;;;;;5099227;28;20408;-88
2023/10/08 04:31:00;;;;;;;3.95;2.38;;;13.20;85.10;;;;;;5086296;28;20121;-89
2023/10/08 04:33:35;;;;;;;3.15;2.45;;;12.20;84.30;;;;;;5100536;28;20050;-89
2023/10/08 04:36:01;;;;;;;3.10;2.40;;;13.10;85.30;;;;;;5101086;28;20466;-89
2023/10/08 04:38:36;;;;;;;;;;;13.10;85.30;;;;;;5151872;27;20059;-88
2023/10/08 04:41:09;;;;;;;2.20;1.80;;;13.20;86.00;;;;;;5115896;28;19920;-89
2023/10/08 04:43:43;;;;;;;4.13;2.08;;;13.10;85.90;;;;;;5100912;28;20135;-88
2023/10/08 04:48:56;;;;;;;2.50;2.10;;;13.00;86.90;;;;;;5117206;28;20435;-91
2023/10/08 04:51:34;;;;;;;3.97;2.72;;;13.10;87.90;;;;;;5084985;28;20431;-89
2023/10/08 04:54:05;;;;;;;6.38;2.60;;;13.00;89.50;;;;;;5096749;28;20039;-89
2023/10/08 04:56:33;;;;;;;2.58;1.95;;;13.00;89.90;;;;;;5098379;28;20070;-89
2023/10/08 04:59:02;;;;;;;2.50;1.92;;;13.10;89.10;;;;;;5100219;28;20065;-89
2023/10/08 05:01:45;;;;;;;3.97;2.33;;;13.00;89.10;;;;;;5150728;27;20044;-88
2023/10/08 05:04:32;;;;;;;2.55;1.95;;;13.10;89.80;;;;;;5114414;28;20254;-89
2023/10/08 05:07:17;;;;;;;2.75;1.85;;;13.00;90.30;;;;;;5083059;28;20055;-89
2023/10/08 05:09:51;;;;;;;4.13;2.03;;;13.10;90.60;;;;;;5099029;28;20063;-89
2023/10/08 05:18:51;;;;;;;3.28;1.98;;;13.00;90.80;;;;;;5115078;28;20117;-88
2023/10/08 05:26:20;;;;;;;2.28;1.98;;;13.10;90.40;;;;;;5113942;28;20051;-89
2023/10/08 05:29:04;;;;;;;5.20;3.65;;;13.10;90.60;;;;;;5098808;28;20043;-89
2023/10/08 05:31:47;;;;;;;2.65;1.95;;;13.00;90.80;;;;;;5151904;27;20086;-89
2023/10/08 05:34:32;;;;;;;3.63;2.13;;;13.00;90.60;;;;;;5099922;28;20051;-89
2023/10/08 05:37:31;;;;;;;3.33;2.15;;;13.10;90.70;;;;;;5099563;28;20485;-89
2023/10/08 05:39:55;;;;;;;3.40;2.38;;;13.00;91.00;;;;;;5116165;28;20551;-88
2023/10/08 05:48:06;;;;;;;6.35;2.60;;;13.00;90.40;;;;;;5115667;28;20043;-89
2023/10/08 05:55:33;;;;;;;2.78;2.35;;;13.00;90.70;;;;;;5115926;28;20142;-89
2023/10/08 06:03:38;;;;;;;3.78;2.40;;;13.00;92.70;;;;;;5148638;27;19920;-89
2023/10/08 06:14:16;;;;;;;7.55;2.45;;;13.00;91.40;;;;;;5113073;28;20058;-89
2023/10/08 06:16:44;;;;;;;4.05;2.33;;;13.00;91.50;;;;;;5151000;27;20500;-89
2023/10/08 06:19:27;;;;;;;3.72;2.28;;;13.10;91.60;;;;;;5096287;28;20078;-89
2023/10/08 06:21:56;;;;;;;3.95;2.13;;;13.10;92.00;;;;;;5115142;27;20094;-89
2023/10/08 06:24:25;;;;;;;3.00;2.10;;;13.00;91.70;;;;;;5113576;28;20090;-89
2023/10/08 06:27:04;;;;;;;3.88;2.47;;;13.10;91.90;;;;;;5081985;28;20130;-89
2023/10/08 06:29:31;;;;;;;3.90;2.35;;;13.10;91.80;;;;;;5097248;28;20047;-89
2023/10/08 06:32:01;;;;;;;3.95;2.17;;;13.10;91.80;;;;;;5096486;28;20055;-89
2023/10/08 06:34:31;;;;;;;4.72;2.58;;;13.20;91.70;;;;;;5098539;28;20091;-89
2023/10/08 06:36:59;;;;;;;3.58;2.60;;;13.10;91.70;;;;;;5098043;28;20062;-89
2023/10/08 06:39:32;;;;;;;3.47;1.98;;;13.20;91.90;;;;;;5097885;28;20485;-89
2023/10/08 06:42:02;;;;;;;6.28;2.40;;;13.10;91.90;;;;;;5115059;28;20039;-89
2023/10/08 06:44:37;;;;;;;4.50;2.40;;;12.30;91.90;;;;;;5098421;28;20047;-89
2023/10/08 06:47:09;;;;;;;2.70;2.00;;;13.30;92.10;;;;;;5149747;27;20055;-88
2023/10/08 06:49:48;;;;;;;;;;;;;;;;;;;;;
2023/10/08 06:52:14;;;;;;;6.35;2.08;;;13.10;92.10;;;;;;5112730;28;20051;-89
2023/10/08 06:54:43;;;;;;;3.88;1.70;;;13.40;92.20;;;;;;5095894;28;20062;-89
2023/10/08 06:57:13;;;;;;;3.72;1.70;;;13.50;91.30;;;;;;5095495;28;20138;-88
2023/10/08 06:59:42;;;;;;;3.78;2.03;;;13.60;90.50;;;;;;5096752;28;20126;-88
2023/10/08 07:02:11;;;;;;;2.75;1.70;;;13.50;89.50;;;;;;5080652;28;20078;-89
2023/10/08 07:04:47;;;;;;;3.30;1.85;;;13.60;87.40;;;;;;5096138;28;20392;-89
2023/10/08 07:07:18;;;;;;;2.10;1.43;;;13.80;85.60;;;;;;5147940;27;20463;-89
2023/10/08 07:09:56;;;;;;;2.25;1.70;;;13.00;83.40;;;;;;5082027;28;20051;-88
2023/10/08 07:12:24;;;;;;;2.75;1.70;;;13.70;82.50;;;;;;5096358;28;20477;-89
2023/10/08 07:14:51;;;;;;;2.83;1.45;;;13.70;81.80;;;;;;5097019;28;20040;-88
2023/10/08 07:17:19;;;;;;;4.03;1.42;;;13.70;80.20;;;;;;5083607;28;20522;-89
2023/10/08 07:19:52;;;;;;;4.05;2.15;;;13.70;79.60;;;;;;5101828;28;20450;-89
2023/10/08 07:22:28;;;;;;;4.90;1.70;;;13.80;79.30;;;;;;5152126;27;20114;-89
2023/10/08 07:24:57;;;;;;;8.57;2.70;;;14.10;78.30;;;;;;5084516;28;20043;-88
2023/10/08 07:27:29;;;;;;;6.90;2.00;;;14.20;75.60;;;;;;5101673;28;20055;-89
2023/10/08 07:30:01;;;;;;;5.15;1.40;;;14.30;73.00;;;;;;5101960;28;20540;-88
2023/10/08 07:32:30;;;;;;;5.72;1.90;;;14.20;71.20;;;;;;5150611;27;20408;-88
2023/10/08 07:38:02;;;;;;;6.13;1.70;;;14.10;71.10;;;;;;5074227;28;20047;-89
2023/10/08 07:40:37;;;;;;;4.22;2.05;;;14.10;72.20;;;;;;5118177;28;20048;-89
2023/10/08 07:43:08;;;;;;;4.07;2.33;;;14.10;71.50;;;;;;5100510;28;20090;-88
2023/10/08 07:45:35;;;;;;;5.43;2.05;;;14.20;71.40;;;;;;5099149;28;20090;-89
2023/10/08 07:48:04;;;;;;;3.67;1.33;;;14.10;69.80;;;;;;5099191;28;20035;-88
2023/10/08 07:50:32;;;;;;;5.07;1.60;;;14.00;67.70;;;;;;5100497;28;20139;-89
2023/10/08 07:53:04;;;;;;;4.72;1.55;;;14.00;68.40;;;;;;5102627;28;20071;-89
2023/10/08 07:55:32;;;;;;;4.25;1.60;;;14.00;69.60;;;;;;5100095;28;20048;-89
2023/10/08 07:58:02;;;;;;;8.85;1.88;;;13.90;70.10;;;;;;5082382;28;20062;-88
2023/10/08 08:00:38;;;;;;;3.25;1.80;;;14.00;70.90;;;;;;5100363;28;20044;-89
2023/10/08 08:03:04;;;;;;;3.92;1.85;;;14.00;71.00;;;;;;5085045;28;20067;-89
2023/10/08 08:05:31;;;;;;;4.10;1.55;;;14.00;71.50;;;;;;5098635;28;20050;-88
2023/10/08 08:07:59;;;;;;;3.42;1.27;;;14.10;71.40;;;;;;5100032;28;20050;-88
2023/10/08 08:10:27;;;;;;;6.90;1.85;;;14.00;69.80;;;;;;5100016;28;20096;-89
2023/10/08 08:13:03;;;;;;;6.28;1.98;;;14.00;68.30;;;;;;5101131;28;20061;-89
2023/10/08 08:15:29;;;;;;;6.05;2.00;;;13.80;67.60;;;;;;5115734;28;20043;-89
2023/10/08 08:17:57;;;;;;;3.72;1.40;;;13.90;67.70;;;;;;5100121;28;20108;-89
2023/10/08 08:20:34;;;;;;;8.82;1.75;;;13.80;67.50;;;;;;5100298;28;20431;-89
2023/10/08 08:23:07;;;;;;;5.43;1.40;;;13.80;67.10;;;;;;5099406;28;20480;-89
2023/10/08 08:25:53;;;;;;;5.40;2.22;;;13.00;64.50;;;;;;5152822;27;20059;-89
2023/10/08 08:28:24;;;;;;;3.83;1.58;;;13.80;62.30;;;;;;5099857;28;20039;-89
2023/10/08 08:30:55;;;;;;;4.28;1.85;;;13.70;62.60;;;;;;5115715;28;20047;-89
2023/10/08 08:33:27;;;;;;;4.45;1.65;;;13.70;62.00;;;;;;5149354;27;20055;-89
2023/10/08 08:36:12;;;;;;;6.60;1.73;;;13.00;62.00;;;;;;5152460;27;20043;-89
2023/10/08 08:38:39;;;;;;;4.40;1.75;;;13.00;64.20;;;;;;5100855;28;20048;-88
2023/10/08 08:41:26;;;;;;;4.18;1.65;;;13.80;65.50;;;;;;5153115;27;20084;-89
2023/10/08 08:44:06;;;;;;;3.67;1.55;;;13.90;66.90;;;;;;5115899;28;20374;-89
2023/10/08 08:46:41;;;;;;;6.68;2.20;;;14.10;70.00;;;;;;5098624;28;20052;-88
2023/10/08 08:49:12;;;;;;;16.15;3.53;;;14.20;67.90;;;;;;5100118;28;20039;-88
2023/10/08 08:51:41;;;;;;;3.72;1.65;;;14.30;65.60;;;;;;5098500;28;20534;-88
2023/10/08 08:54:16;;;;;;;8.40;1.92;;;14.40;63.80;;;;;;5151198;27;20489;-88
2023/10/08 08:56:45;;;;;;;5.75;1.73;;;14.50;63.80;;;;;;5099545;28;20059;-89
2023/10/08 08:59:11;;;;;;;5.88;1.40;;;13.50;60.30;;;;;;5099351;28;20039;-89
2023/10/08 09:01:43;;;;;;;4.97;1.35;;;14.60;56.60;;;;;;5149868;27;20065;-88
2023/10/08 09:04:09;;;;;;;3.85;1.27;;;14.60;52.70;;;;;;5100272;28;20062;-88
2023/10/08 09:06:39;;;;;;;4.70;1.30;;;14.60;48.00;;;;;;5099126;28;20043;-89
2023/10/08 09:09:21;;;;;;;4.85;1.67;;;14.10;40.70;;;;;;5150303;27;20040;-89
2023/10/08 09:11:57;;;;;;;8.23;2.00;;;14.60;34.40;;;;;;5099398;28;20433;-89
2023/10/08 09:14:49;;;;;;;4.38;1.83;;;14.70;31.10;;;;;;5149102;27;20051;-88
2023/10/08 09:17:17;;;;;;;6.35;2.20;;;14.70;29.90;;;;;;5098940;28;20079;-88
2023/10/08 09:19:45;;;;;;;5.88;1.75;;;14.60;32.70;;;;;;5147926;27;20040;-88
2023/10/08 09:22:12;;;;;;;5.25;1.67;;;14.80;35.20;;;;;;5131890;27;20047;-88
2023/10/08 09:24:41;;;;;;;;;;;15.00;31.90;;;;;;5151470;27;20122;-88
2023/10/08 09:27:13;;;;;;;4.65;1.65;;;14.90;17.80;;;;;;5133445;27;19946;-88
2023/10/08 09:29:42;;;;;;;8.23;2.25;;;15.00;33.80;;;;;;5150943;27;20050;-89
2023/10/08 09:32:10;;;;;;;5.53;2.05;;;15.00;27.50;;;;;;5098408;28;20519;-88
2023/10/08 09:34:41;;;;;;;5.32;1.83;;;14.40;19.70;;;;;;5099430;28;20105;-88
2023/10/08 09:37:07;;;;;;;8.30;1.90;;;15.20;17.30;;;;;;5099735;28;20044;-89
2023/10/08 09:39:37;;;;;;;7.63;2.22;;;15.80;12.40;;;;;;5148507;27;20402;-90
2023/10/08 09:42:11;;;;;;;2.25;1.10;;;15.20;7.20;;;;;;5098996;28;20111;-90
2023/10/08 09:44:47;;;;;;;4.80;1.60;;;14.60;2.90;;;;;;5098964;28;20083;-89
2023/10/08 09:47:23;;;;;;;6.68;1.55;;;15.30;1.00;;;;;;5098866;28;20051;-89
2023/10/08 09:50:07;;;;;;;6.95;2.33;;;15.30;1.00;;;;;;5097080;28;20503;-89
2023/10/08 09:53:04;;;;;;;5.60;1.35;;;14.40;1.00;;;;;;5148347;27;20065;-88
2023/10/08 09:55:29;;;;;;;6.97;2.00;;;15.50;1.00;;;;;;5091629;28;20048;-88
2023/10/08 09:57:56;;;;;;;8.25;2.10;;;15.70;1.00;;;;;;5097698;28;20111;-88
2023/10/08 10:00:33;;;;;;;7.07;2.47;;;14.90;1.00;;;;;;5098571;28;20047;-88
2023/10/08 10:03:09;;;;;;;9.30;2.03;;;16.00;1.00;;;;;;5098097;28;20124;-89
2023/10/08 10:05:50;;;;;;;;;;;;;;;;;;;;;
2023/10/08 10:08:20;;;;;;;6.40;1.90;;;16.20;1.00;;;;;;5115283;28;20043;-88
2023/10/08 10:10:57;;;;;;;5.72;1.65;;;16.30;1.00;;;;;;5098742;28;20047;-88
2023/10/08 10:13:55;;;;;;;4.38;1.48;;;16.30;1.00;;;;;;5098341;28;20051;-89
2023/10/08 10:16:48;;;;;;;5.32;1.60;;;15.60;1.00;;;;;;5150732;27;20050;-88
2023/10/08 10:19:23;;;;;;;4.78;1.77;;;16.40;1.00;;;;;;5100186;28;20111;-89
2023/10/08 10:21:56;;;;;;;4.85;1.92;;;16.80;1.00;;;;;;5097637;28;20050;-89
2023/10/08 10:24:37;;;;;;;4.45;1.90;;;16.70;1.00;;;;;;5099332;28;20389;-89
2023/10/08 10:27:18;;;;;;;14.45;2.50;;;16.00;1.00;;;;;;5096783;28;20489;-89
2023/10/08 10:29:45;;;;;;;7.80;1.90;;;17.10;1.00;;;;;;5081266;28;20513;-89
2023/10/08 10:32:15;;;;;;;3.67;1.77;;;16.70;1.00;;;;;;5112411;28;20135;-88
2023/10/08 10:34:47;;;;;;;7.50;1.88;;;17.20;1.00;;;;;;5098832;28;20077;-89
2023/10/08 10:37:19;;;;;;;5.45;1.98;;;16.70;1.00;;;;;;5099702;28;20527;-88
2023/10/08 10:40:13;;;;;;;;;;;;;;;;;;;;;
2023/10/08 10:42:47;;;;;;;5.43;1.52;;;17.30;99.90;;;;;;5115722;28;20052;-88
2023/10/08 10:45:35;;;;;;;3.47;1.52;;;17.20;99.90;;;;;;5097462;28;20044;-88
2023/10/08 10:48:22;;;;;;;4.55;2.25;;;17.40;99.90;;;;;;5111996;28;20412;-89
2023/10/08 10:54:07;;;;;;;6.68;2.58;;;17.50;99.90;;;;;;5112745;28;20508;-88
2023/10/08 10:56:50;;;;;;;5.95;2.10;;;17.50;99.90;;;;;;5095428;28;20076;-88
2023/10/08 10:59:18;;;;;;;7.88;1.73;;;17.80;99.90;;;;;;5081062;28;20039;-88
2023/10/08 11:02:05;;;;;;;6.10;2.00;;;18.00;99.90;;;;;;5094732;28;20075;-88
2023/10/08 11:04:32;;;;;;;5.50;2.08;;;18.30;99.90;;;;;;5080781;28;20048;-88
2023/10/08 11:07:00;;;;;;;7.95;2.22;;;18.50;99.90;;;;;;5094893;28;20143;-88
2023/10/08 11:09:37;;;;;;;7.38;1.67;;;18.70;99.90;;;;;;5095031;28;20073;-88
2023/10/08 11:12:10;;;;;;;8.07;1.98;;;18.80;1.00;;;;;;5094940;28;20134;-88
2023/10/08 11:14:46;;;;;;;4.00;1.45;;;18.80;1.00;;;;;;5095436;28;20051;-88
2023/10/08 11:17:24;;;;;;;8.93;2.25;;;18.80;99.90;;;;;;5096136;28;20043;-88
2023/10/08 11:19:52;;;;;;;5.40;2.15;;;18.80;1.00;;;;;;5097411;28;20055;-88
2023/10/08 11:22:22;;;;;;;8.70;1.40;;;19.00;1.00;;;;;;5098558;28;20108;-88
2023/10/08 11:24:51;;;;;;;7.15;2.17;;;18.90;1.00;;;;;;5097117;28;20043;-88
2023/10/08 11:27:28;;;;;;;4.68;1.60;;;18.80;99.90;;;;;;5147361;27;20549;-88
2023/10/08 11:30:00;;;;;;;6.78;1.80;;;18.70;99.90;;;;;;5094761;28;20050;-88
2023/10/08 11:32:34;;;;;;;5.53;1.88;;;18.60;1.00;;;;;;5095835;28;20063;-88
2023/10/08 11:35:15;;;;;;;8.38;2.22;;;18.60;1.00;;;;;;5095510;28;20451;-87
2023/10/08 11:37:48;;;;;;;9.52;2.17;;;18.50;1.00;;;;;;5096289;28;20139;-88
2023/10/08 11:40:28;;;;;;;6.20;1.90;;;18.30;99.90;;;;;;5096729;28;20054;-88
2023/10/08 11:42:59;;;;;;;5.15;1.60;;;18.50;99.90;;;;;;5148821;27;20047;-88
2023/10/08 11:45:29;;;;;;;7.28;1.50;;;18.20;99.90;;;;;;5097050;28;20373;-87
2023/10/08 11:47:55;;;;;;;2.75;1.50;;;18.10;99.90;;;;;;5148565;27;20369;-88
2023/10/08 11:50:32;;;;;;;4.43;1.73;;;18.20;99.90;;;;;;5080444;28;20100;-87
2023/10/08 11:53:02;;;;;;;4.22;1.35;;;18.30;99.90;;;;;;5096025;28;20460;-88
2023/10/08 11:55:29;;;;;;;6.40;1.73;;;18.40;99.90;;;;;;5098274;28;20154;-87
2023/10/08 11:57:55;;;;;;;;;;;18.30;99.90;;;;;;5147412;27;20108;-88
2023/10/08 12:00:25;;;;;;;5.82;1.45;;;18.20;36.90;;;;;;5130520;28;19927;-88
2023/10/08 12:02:57;;;;;;;5.65;1.83;;;18.00;99.90;;;;;;5095684;28;20450;-88
2023/10/08 12:05:23;;;;;;;7.18;1.85;;;18.70;99.90;;;;;;5100108;28;20396;-88
2023/10/08 12:08:01;;;;;;;5.10;1.77;;;18.00;1.00;;;;;;5098523;28;20044;-88
2023/10/08 12:10:34;;;;;;;6.72;1.58;;;18.10;99.90;;;;;;5116294;28;20122;-88
2023/10/08 12:13:00;;;;;;;5.57;1.92;;;18.20;1.00;;;;;;5115899;28;20059;-87
2023/10/08 12:15:34;;;;;;;6.93;1.88;;;18.20;1.00;;;;;;5098159;28;20046;-88
2023/10/08 12:18:15;;;;;;;6.32;2.40;;;18.30;1.00;;;;;;5086095;28;20044;-88
2023/10/08 12:20:45;;;;;;;8.90;1.77;;;18.30;1.00;;;;;;5120945;28;20104;-88
2023/10/08 12:23:11;;;;;;;7.43;2.05;;;18.30;1.00;;;;;;5099292;28;20142;-88
2023/10/08 12:25:37;;;;;;;4.97;1.70;;;18.30;99.90;;;;;;5099771;28;20044;-87
2023/10/08 12:28:06;;;;;;;;;;;18.20;99.90;;;;;;5149102;27;20097;-88
2023/10/08 12:30:41;;;;;;;7.38;1.88;;;18.00;99.90;;;;;;5134205;27;19962;-88
2023/10/08 12:33:19;;;;;;;6.30;2.35;;;18.30;1.00;;;;;;5082184;28;20055;-88
2023/10/08 12:35:48;;;;;;;5.25;2.47;;;17.50;99.90;;;;;;5101874;28;20070;-88
2023/10/08 12:38:17;;;;;;;8.05;2.08;;;18.20;99.90;;;;;;5150652;27;20378;-88
2023/10/08 12:40:52;;;;;;;5.05;1.50;;;18.30;99.90;;;;;;5150044;27;20043;-88
2023/10/08 12:43:22;;;;;;;7.68;2.05;;;18.30;99.90;;;;;;5098257;28;20134;-88
2023/10/08 12:45:54;;;;;;;8.88;2.13;;;18.30;99.90;;;;;;5152203;27;20388;-88
2023/10/08 12:48:27;;;;;;;5.78;1.90;;;18.50;99.90;;;;;;5149410;27;20077;-88
2023/10/08 12:50:57;;;;;;;7.65;2.15;;;18.60;99.90;;;;;;5101815;28;20047;-88
2023/10/08 12:53:39;;;;;;;3.80;1.30;;;18.80;99.90;;;;;;5098649;28;20054;-88
2023/10/08 12:56:14;;;;;;;3.85;1.35;;;18.90;1.00;;;;;;5100675;28;20565;-89
2023/10/08 12:58:43;;;;;;;7.18;2.08;;;18.90;99.90;;;;;;5099465;28;20052;-88
2023/10/08 13:01:10;;;;;;;3.95;1.50;;;19.20;99.90;;;;;;5100863;28;20043;-88
2023/10/08 13:03:41;;;;;;;;;;;19.20;99.90;;;;;;5098210;28;20048;-88
2023/10/08 13:06:15;;;;;;;4.38;1.45;;;19.50;1.00;;;;;;5132896;27;20274;-87
2023/10/08 13:08:43;;;;;;;5.80;1.65;;;19.60;99.90;;;;;;5151985;27;20054;-88
2023/10/08 13:11:11;;;;;;;9.02;1.80;;;19.30;99.90;;;;;;5115308;28;20180;-88
2023/10/08 13:13:37;;;;;;;5.85;2.20;;;19.20;1.00;;;;;;5114554;28;20477;-88
2023/10/08 13:16:07;;;;;;;4.82;1.90;;;19.20;99.90;;;;;;5100408;28;20043;-89
2023/10/08 13:18:37;;;;;;;5.65;1.70;;;19.30;99.90;;;;;;5099992;28;20101;-88
2023/10/08 13:21:06;;;;;;;4.82;1.75;;;19.40;99.90;;;;;;5098084;28;20054;-88
2023/10/08 13:23:35;;;;;;;4.65;2.35;;;19.60;99.90;;;;;;5098022;28;20484;-88
2023/10/08 13:26:04;;;;;;;6.50;2.10;;;19.60;99.90;;;;;;5099177;28;20055;-88
2023/10/08 13:28:33;;;;;;;9.45;2.00;;;19.50;99.90;;;;;;5100563;28;20043;-87
2023/10/08 13:31:19;;;;;;;6.40;1.80;;;18.70;99.90;;;;;;5099280;28;20536;-88
2023/10/08 13:33:52;;;;;;;4.35;1.50;;;19.20;23.00;;;;;;5096987;28;20052;-88
2023/10/08 13:36:25;;;;;;;5.22;1.60;;;18.40;99.90;;;;;;5096418;28;20039;-88
2023/10/08 13:38:51;;;;;;;3.40;1.58;;;19.00;1.00;;;;;;5098164;28;20047;-88
2023/10/08 13:41:18;;;;;;;4.72;1.33;;;18.80;99.90;;;;;;5098559;28;20052;-88
2023/10/08 13:43:59;;;;;;;5.13;1.83;;;18.70;99.90;;;;;;5099261;28;20043;-88
2023/10/08 13:46:25;;;;;;;5.60;1.60;;;18.60;99.90;;;;;;5147468;27;20134;-89
2023/10/08 13:48:51;;;;;;;2.80;1.73;;;18.40;1.00;;;;;;5096737;28;20135;-88
2023/10/08 13:51:25;;;;;;;5.20;1.77;;;18.40;1.00;;;;;;5148898;27;20058;-88
2023/10/08 13:54:09;;;;;;;4.20;2.10;;;18.30;99.90;;;;;;5113698;28;20044;-88
2023/10/08 13:56:37;;;;;;;3.70;1.85;;;18.20;99.90;;;;;;5098198;28;20075;-88
2023/10/08 13:59:12;;;;;;;4.20;1.50;;;18.70;99.90;;;;;;5148868;27;20051;-88
2023/10/08 14:01:42;;;;;;;8.02;2.17;;;18.00;99.90;;;;;;5113776;28;20043;-88
2023/10/08 14:04:09;;;;;;;4.35;2.13;;;17.90;99.90;;;;;;5096139;28;20039;-88
2023/10/08 14:06:41;;;;;;;2.88;1.55;;;17.90;99.90;;;;;;5149490;27;20055;-88
2023/10/08 14:09:20;;;;;;;4.20;1.73;;;17.90;99.90;;;;;;5082570;28;20478;-88
2023/10/08 14:11:50;;;;;;;8.27;1.70;;;17.80;1.00;;;;;;5098560;28;20046;-88
2023/10/08 14:14:17;;;;;;;3.90;1.67;;;17.90;99.90;;;;;;5098390;28;20047;-89
2023/10/08 14:16:52;;;;;;;7.00;1.60;;;17.70;99.90;;;;;;5097934;28;20047;-88
2023/10/08 14:19:22;;;;;;;6.45;1.95;;;16.90;99.90;;;;;;5098045;28;20039;-88
2023/10/08 14:22:00;;;;;;;9.73;1.98;;;17.60;99.90;;;;;;5097602;28;20043;-88
2023/10/08 14:24:32;;;;;;;5.57;1.80;;;16.70;99.90;;;;;;5097452;28;20081;-88